Time;durP1;ratioP1;P1;durP2;ratioP2;P2;SDS_P1;SDS_P2;PMS_P1;PMS_P2;Temp;Humidity;BMP_temperature;BMP_pressure;BME280_temperature;BME280_humidity;BME280_pressure;Samples;Min_cycle;Max_cycle;Signal;HPM_P1;HPM_P2
2022/09/29 00:00:52;;;;;;;0.20;0.10;;;24.30;95.90;;;;;;5070468;28;20271;-81
2022/09/29 00:03:21;;;;;;;0.10;0.00;;;23.90;96.00;;;;;;5067002;28;20082;-79
2022/09/29 00:05:53;;;;;;;0.08;0.00;;;23.50;97.00;;;;;;5062111;28;20024;-80
2022/09/29 00:08:23;;;;;;;0.57;0.10;;;23.20;96.90;;;;;;5068727;28;20060;-84
2022/09/29 00:10:50;;;;;;;1.00;0.08;;;22.90;97.30;;;;;;5065948;28;20024;-85
2022/09/29 00:13:18;;;;;;;0.52;0.20;;;22.90;96.70;;;;;;5068978;28;20111;-80
2022/09/29 00:15:54;;;;;;;1.55;0.30;;;23.30;96.70;;;;;;5068891;28;20056;-79
2022/09/29 00:18:21;;;;;;;0.00;0.00;;;23.80;96.30;;;;;;5068238;28;20067;-83
2022/09/29 00:21:06;;;;;;;0.55;0.10;;;24.40;96.10;;;;;;5069917;28;20055;-86
2022/09/29 00:23:35;;;;;;;0.47;0.10;;;24.00;95.00;;;;;;5067352;28;20103;-79
2022/09/29 00:26:08;;;;;;;0.30;0.10;;;23.50;95.40;;;;;;5065846;28;20016;-81
2022/09/29 00:28:37;;;;;;;0.25;0.20;;;23.10;96.00;;;;;;5067749;28;20032;-81
2022/09/29 00:31:06;;;;;;;0.93;0.17;;;23.00;96.60;;;;;;5071227;28;20031;-81
2022/09/29 00:33:36;;;;;;;0.30;0.20;;;23.10;96.40;;;;;;5067560;28;20588;-84
2022/09/29 00:36:11;;;;;;;0.22;0.10;;;23.40;96.30;;;;;;5066819;28;20029;-82
2022/09/29 00:38:40;;;;;;;0.20;0.15;;;24.10;96.30;;;;;;5068642;28;20040;-85
2022/09/29 00:41:13;;;;;;;0.32;0.10;;;24.90;95.40;;;;;;5070535;28;20047;-84
2022/09/29 00:43:49;;;;;;;0.30;0.10;;;25.70;95.20;;;;;;5076831;28;20028;-81
2022/09/29 00:46:39;;;;;;;0.00;0.00;;;26.20;93.70;;;;;;5068695;28;20024;-80
2022/09/29 00:49:11;;;;;;;0.10;0.10;;;26.50;93.00;;;;;;5061392;28;20045;-81
2022/09/29 00:51:39;;;;;;;0.17;0.17;;;27.00;93.70;;;;;;5065128;28;20165;-83
2022/09/29 00:54:09;;;;;;;0.30;0.10;;;26.90;92.70;;;;;;5069998;28;20055;-80
2022/09/29 00:56:40;;;;;;;0.13;0.03;;;26.40;92.60;;;;;;5072127;28;20379;-80
2022/09/29 00:59:12;;;;;;;0.10;0.10;;;25.40;92.50;;;;;;5067886;28;20577;-80
2022/09/29 01:01:40;;;;;;;0.38;0.10;;;24.30;92.70;;;;;;5050799;28;20027;-81
2022/09/29 01:04:15;;;;;;;0.95;0.25;;;23.70;93.30;;;;;;5063067;28;20032;-81
2022/09/29 01:06:57;;;;;;;0.17;0.10;;;23.40;94.00;;;;;;5062504;28;20391;-82
2022/09/29 01:09:34;;;;;;;0.00;0.00;;;23.20;94.60;;;;;;5068482;28;20024;-80
2022/09/29 01:12:02;;;;;;;0.30;0.10;;;23.20;94.80;;;;;;5073360;28;20088;-81
2022/09/29 01:14:31;;;;;;;0.05;0.05;;;23.20;95.20;;;;;;5075208;28;20059;-88
2022/09/29 01:16:59;;;;;;;0.03;0.00;;;23.10;95.30;;;;;;5072842;28;20145;-81
2022/09/29 01:19:48;;;;;;;0.00;0.00;;;23.30;95.00;;;;;;5068649;28;20101;-81
2022/09/29 01:22:21;;;;;;;0.10;0.10;;;23.40;94.90;;;;;;5067627;28;20027;-81
2022/09/29 01:24:51;;;;;;;2.30;0.10;;;23.80;95.30;;;;;;5069441;28;20029;-81
2022/09/29 01:27:53;;;;;;;0.00;0.00;;;24.10;94.50;;;;;;5068335;28;20032;-79
2022/09/29 01:30:42;;;;;;;0.52;0.15;;;24.20;94.00;;;;;;5069734;28;20073;-81
2022/09/29 01:33:24;;;;;;;0.25;0.10;;;23.80;94.40;;;;;;5065310;28;20043;-79
2022/09/29 01:36:22;;;;;;;0.20;0.10;;;23.60;94.70;;;;;;5069063;28;20021;-81
2022/09/29 01:39:19;;;;;;;0.65;0.10;;;23.30;95.00;;;;;;5062977;28;20025;-86
2022/09/29 01:42:11;;;;;;;0.22;0.10;;;23.30;95.60;;;;;;5066425;28;20020;-85
2022/09/29 01:44:49;;;;;;;0.57;0.10;;;23.60;96.10;;;;;;5058271;28;20074;-84
2022/09/29 01:47:36;;;;;;;2.08;0.20;;;23.70;95.80;;;;;;5057609;28;20028;-83
2022/09/29 01:50:16;;;;;;;0.05;0.05;;;23.90;94.80;;;;;;5068972;28;20028;-80
2022/09/29 01:52:55;;;;;;;0.50;0.20;;;24.00;94.60;;;;;;5082197;28;20060;-90
2022/09/29 01:55:28;;;;;;;0.20;0.10;;;24.40;94.60;;;;;;5090072;28;20475;-84
2022/09/29 01:58:08;;;;;;;0.10;0.05;;;24.30;94.10;;;;;;5087629;28;20079;-86
2022/09/29 02:00:42;;;;;;;0.17;0.10;;;23.80;94.30;;;;;;5074894;28;20089;-82
2022/09/29 02:03:15;;;;;;;0.70;0.10;;;23.60;95.20;;;;;;5061436;28;20063;-85
2022/09/29 02:05:57;;;;;;;0.63;0.30;;;23.70;95.00;;;;;;5070070;28;20025;-87
2022/09/29 02:08:39;;;;;;;0.10;0.03;;;23.50;95.00;;;;;;5061319;28;20099;-83
2022/09/29 02:11:14;;;;;;;0.20;0.10;;;23.20;95.30;;;;;;5085523;28;20085;-85
2022/09/29 02:14:01;;;;;;;0.30;0.10;;;23.40;94.90;;;;;;5068237;28;20363;-87
2022/09/29 02:16:39;;;;;;;1.65;0.20;;;24.10;95.10;;;;;;5074144;28;20020;-82
2022/09/29 02:19:18;;;;;;;0.35;0.10;;;24.60;94.10;;;;;;5060491;28;20070;-86
2022/09/29 02:21:46;;;;;;;1.50;0.28;;;24.70;94.40;;;;;;5073390;28;20035;-84
2022/09/29 02:24:14;;;;;;;0.30;0.10;;;25.20;94.10;;;;;;5055950;28;20048;-88
2022/09/29 02:26:44;;;;;;;0.20;0.10;;;24.80;93.10;;;;;;5074264;28;20024;-80
2022/09/29 02:29:11;;;;;;;0.20;0.10;;;23.90;93.60;;;;;;5060392;28;20028;-81
2022/09/29 02:31:39;;;;;;;0.40;0.10;;;23.20;95.40;;;;;;5070030;28;20028;-80
2022/09/29 02:34:11;;;;;;;0.10;0.10;;;22.60;96.60;;;;;;5053418;28;20025;-80
2022/09/29 02:36:48;;;;;;;0.38;0.10;;;22.70;97.50;;;;;;5065545;28;20051;-83
2022/09/29 02:39:26;;;;;;;0.38;0.10;;;23.10;97.50;;;;;;5070258;28;20044;-81
2022/09/29 02:42:27;;;;;;;1.85;0.10;;;23.60;96.70;;;;;;5072798;28;20901;-82
2022/09/29 02:45:10;;;;;;;0.30;0.03;;;23.70;96.80;;;;;;5058788;28;20029;-84
2022/09/29 02:48:06;;;;;;;0.20;0.08;;;23.50;97.70;;;;;;5069414;28;20031;-83
2022/09/29 02:50:50;;;;;;;0.05;0.00;;;23.50;97.40;;;;;;5063339;28;20044;-80
2022/09/29 02:53:29;;;;;;;1.20;0.10;;;23.50;96.60;;;;;;5066031;28;20025;-86
2022/09/29 02:56:15;;;;;;;0.05;0.00;;;23.40;96.80;;;;;;5077833;28;20024;-88
2022/09/29 02:58:46;;;;;;;;;;;23.50;96.60;;;;;;5068202;28;20043;-82
2022/09/29 03:01:15;;;;;;;0.63;0.10;;;23.20;97.10;;;;;;5084587;28;19908;-84
2022/09/29 03:03:43;;;;;;;0.13;0.00;;;22.90;97.50;;;;;;5075261;28;20024;-84
2022/09/29 03:06:12;;;;;;;0.50;0.10;;;23.00;97.10;;;;;;5071482;28;20024;-82
2022/09/29 03:08:40;;;;;;;0.20;0.20;;;23.00;96.40;;;;;;5064611;28;20485;-86
2022/09/29 03:11:07;;;;;;;2.95;0.10;;;22.70;96.20;;;;;;5077721;28;20024;-87
2022/09/29 03:13:34;;;;;;;0.08;0.08;;;23.00;96.60;;;;;;5069526;28;20035;-86
2022/09/29 03:16:02;;;;;;;0.65;0.10;;;23.30;96.30;;;;;;5063989;28;20051;-88
2022/09/29 03:18:29;;;;;;;1.67;0.50;;;23.00;95.80;;;;;;5071059;28;20086;-88
2022/09/29 03:20:56;;;;;;;0.80;0.17;;;22.80;95.70;;;;;;5080368;28;20657;-81
2022/09/29 03:23:25;;;;;;;3.80;0.70;;;22.80;96.40;;;;;;5072463;28;20102;-80
2022/09/29 03:25:52;;;;;;;3.55;0.28;;;22.60;95.90;;;;;;5060601;28;20021;-85
2022/09/29 03:28:20;;;;;;;1.67;0.32;;;22.20;96.20;;;;;;5059736;28;20100;-88
2022/09/29 03:30:47;;;;;;;2.45;0.20;;;21.80;96.60;;;;;;5067903;28;20044;-78
2022/09/29 03:33:14;;;;;;;0.22;0.10;;;21.50;98.10;;;;;;5062909;28;20128;-83
2022/09/29 03:35:42;;;;;;;3.38;0.40;;;21.40;99.90;;;;;;5078093;28;20052;-83
2022/09/29 03:38:09;;;;;;;0.80;0.30;;;21.30;99.90;;;;;;5081681;28;20044;-80
2022/09/29 03:40:36;;;;;;;0.25;0.00;;;21.40;99.90;;;;;;5070514;28;20025;-80
2022/09/29 03:43:04;;;;;;;0.45;0.10;;;21.20;99.90;;;;;;5068055;28;20020;-84
2022/09/29 03:45:32;;;;;;;1.77;0.60;;;21.00;99.90;;;;;;5068766;28;20028;-80
2022/09/29 03:47:59;;;;;;;0.75;0.10;;;21.40;99.90;;;;;;5070325;28;20024;-77
2022/09/29 03:50:27;;;;;;;0.50;0.20;;;22.10;99.90;;;;;;5072279;28;20039;-79
2022/09/29 03:52:54;;;;;;;0.15;0.05;;;22.70;99.70;;;;;;5066812;28;20029;-79
2022/09/29 03:55:21;;;;;;;1.08;0.17;;;23.20;99.60;;;;;;5076416;28;20068;-79
2022/09/29 03:57:49;;;;;;;0.57;0.10;;;23.50;98.10;;;;;;5069215;28;20259;-80
2022/09/29 04:00:16;;;;;;;1.08;0.20;;;23.60;98.30;;;;;;5059546;28;20037;-83
2022/09/29 04:02:43;;;;;;;0.00;0.00;;;23.60;98.30;;;;;;5057963;28;20024;-78
2022/09/29 04:05:11;;;;;;;0.00;0.00;;;23.00;98.40;;;;;;5053965;28;20025;-89
2022/09/29 04:07:39;;;;;;;1.15;0.10;;;22.80;99.00;;;;;;5060155;28;20132;-87
2022/09/29 04:10:06;;;;;;;0.10;0.03;;;22.80;99.00;;;;;;5071552;28;20024;-84
2022/09/29 04:12:37;;;;;;;0.05;0.00;;;22.40;99.20;;;;;;5065500;28;20059;-80
2022/09/29 04:15:05;;;;;;;1.08;0.05;;;21.90;99.50;;;;;;5068223;28;20107;-81
2022/09/29 04:17:32;;;;;;;0.32;0.10;;;21.80;99.50;;;;;;5069596;28;20126;-81
2022/09/29 04:20:00;;;;;;;0.10;0.10;;;21.40;99.90;;;;;;5066749;28;20056;-88
2022/09/29 04:22:27;;;;;;;0.10;0.10;;;21.20;99.90;;;;;;5076369;28;20479;-83
2022/09/29 04:24:55;;;;;;;0.35;0.00;;;21.10;99.90;;;;;;5065064;28;20032;-78
2022/09/29 04:27:22;;;;;;;0.10;0.00;;;21.10;99.90;;;;;;5067496;28;20025;-81
2022/09/29 04:29:50;;;;;;;0.10;0.10;;;21.40;99.90;;;;;;5075556;28;20028;-78
2022/09/29 04:32:17;;;;;;;0.75;0.10;;;21.80;99.60;;;;;;5066291;28;20040;-83
2022/09/29 04:34:44;;;;;;;0.15;0.10;;;22.10;99.10;;;;;;5074451;28;20035;-88
2022/09/29 04:37:12;;;;;;;1.25;0.15;;;22.20;99.00;;;;;;5060400;28;20024;-83
2022/09/29 04:39:39;;;;;;;0.00;0.00;;;22.10;99.20;;;;;;5051687;28;20041;-79
2022/09/29 04:42:07;;;;;;;0.08;0.00;;;22.00;98.90;;;;;;5071499;28;20487;-84
2022/09/29 04:44:34;;;;;;;1.00;0.43;;;22.10;98.80;;;;;;5065593;28;20040;-79
2022/09/29 04:47:01;;;;;;;0.65;0.52;;;22.00;97.90;;;;;;5061894;28;20049;-88
2022/09/29 04:49:29;;;;;;;0.65;0.10;;;22.10;98.40;;;;;;5055652;28;20043;-78
2022/09/29 04:51:57;;;;;;;2.30;0.00;;;22.10;97.80;;;;;;5069334;28;20024;-85
2022/09/29 04:54:24;;;;;;;0.20;0.00;;;21.80;97.70;;;;;;5058092;28;20107;-83
2022/09/29 04:56:52;;;;;;;0.45;0.00;;;21.50;98.20;;;;;;5050884;28;20037;-79
2022/09/29 04:59:19;;;;;;;0.00;0.00;;;21.30;98.40;;;;;;5065388;28;20028;-78
2022/09/29 05:01:49;;;;;;;1.85;0.13;;;21.20;98.30;;;;;;5069720;28;20036;-80
2022/09/29 05:04:16;;;;;;;0.85;0.10;;;21.20;98.50;;;;;;5080850;28;20039;-88
2022/09/29 05:06:44;;;;;;;0.90;0.10;;;21.10;98.40;;;;;;5063216;28;20027;-79
2022/09/29 05:09:12;;;;;;;0.10;0.00;;;21.10;98.90;;;;;;5066298;28;20021;-81
2022/09/29 05:11:39;;;;;;;0.13;0.00;;;21.20;98.30;;;;;;5060848;28;20044;-80
2022/09/29 05:14:06;;;;;;;2.30;0.20;;;21.10;98.50;;;;;;5051252;28;20103;-77
2022/09/29 05:16:34;;;;;;;0.00;0.00;;;20.90;98.70;;;;;;5064719;28;20027;-79
2022/09/29 05:19:02;;;;;;;0.00;0.00;;;20.90;98.50;;;;;;5076323;28;20047;-82
2022/09/29 05:21:30;;;;;;;0.30;0.00;;;20.90;98.90;;;;;;5058465;28;20017;-79
2022/09/29 05:23:57;;;;;;;0.00;0.00;;;20.70;99.00;;;;;;5064837;28;20029;-80
2022/09/29 05:26:24;;;;;;;0.15;0.00;;;20.60;99.20;;;;;;5066924;28;20021;-81
2022/09/29 05:28:52;;;;;;;0.00;0.00;;;20.60;99.90;;;;;;5058307;28;20098;-81
2022/09/29 05:31:19;;;;;;;0.15;0.00;;;20.50;99.60;;;;;;5057771;28;20029;-78
2022/09/29 05:33:47;;;;;;;0.00;0.00;;;20.50;99.60;;;;;;5066315;28;20430;-77
2022/09/29 05:36:14;;;;;;;1.02;0.03;;;20.40;99.60;;;;;;5069731;28;20031;-78
2022/09/29 05:38:42;;;;;;;0.63;0.10;;;20.20;99.80;;;;;;5073910;28;20032;-80
2022/09/29 05:41:11;;;;;;;0.10;0.00;;;20.00;99.90;;;;;;5073844;28;20035;-77
2022/09/29 05:43:39;;;;;;;0.08;0.00;;;19.90;99.90;;;;;;5059184;28;20065;-79
2022/09/29 05:46:09;;;;;;;1.00;0.08;;;19.80;99.90;;;;;;5083846;28;20441;-77
2022/09/29 05:48:37;;;;;;;0.65;0.00;;;19.70;99.90;;;;;;5081672;28;20039;-77
2022/09/29 05:51:10;;;;;;;0.00;0.00;;;19.50;99.90;;;;;;5068864;28;20035;-79
2022/09/29 05:53:38;;;;;;;0.38;0.08;;;19.40;99.90;;;;;;5063881;28;20025;-79
2022/09/29 05:56:07;;;;;;;1.25;0.10;;;19.30;99.90;;;;;;5067199;28;20551;-79
2022/09/29 05:58:37;;;;;;;1.00;0.20;;;19.20;99.90;;;;;;5061184;28;20044;-77
2022/09/29 06:01:15;;;;;;;0.00;0.00;;;19.10;99.90;;;;;;5057706;28;20093;-81
2022/09/29 06:03:43;;;;;;;0.30;0.00;;;19.00;99.90;;;;;;5050087;28;20119;-79
2022/09/29 06:06:16;;;;;;;0.13;0.00;;;18.80;99.90;;;;;;5070047;28;20036;-78
2022/09/29 06:08:44;;;;;;;0.35;0.00;;;18.60;99.90;;;;;;5059914;28;20441;-77
2022/09/29 06:11:17;;;;;;;0.10;0.05;;;18.40;99.90;;;;;;5076768;28;20052;-78
2022/09/29 06:13:47;;;;;;;0.10;0.10;;;18.40;99.90;;;;;;5070700;28;20092;-78
2022/09/29 06:16:16;;;;;;;1.95;0.03;;;18.40;99.90;;;;;;5080657;28;20033;-77
2022/09/29 06:18:43;;;;;;;1.42;0.20;;;18.30;99.90;;;;;;5058562;28;20458;-79
2022/09/29 06:21:13;;;;;;;0.30;0.10;;;18.30;99.90;;;;;;5066099;28;20029;-78
2022/09/29 06:23:41;;;;;;;1.88;0.13;;;18.20;99.90;;;;;;5052448;28;20090;-79
2022/09/29 06:26:11;;;;;;;0.20;0.10;;;18.20;99.90;;;;;;5059596;28;20039;-79
2022/09/29 06:28:39;;;;;;;0.40;0.10;;;18.10;99.90;;;;;;5071526;28;20036;-80
2022/09/29 06:31:18;;;;;;;0.88;0.10;;;17.90;99.90;;;;;;5070097;28;20032;-80
2022/09/29 06:33:46;;;;;;;0.30;0.30;;;17.70;99.90;;;;;;5066464;28;20057;-78
2022/09/29 06:39:09;;;;;;;1.10;0.20;;;17.40;99.90;;;;;;5073182;28;20051;-79
2022/09/29 06:41:37;;;;;;;0.10;0.10;;;17.40;99.90;;;;;;5087689;28;20517;-79
2022/09/29 06:44:04;;;;;;;2.95;0.52;;;17.30;99.90;;;;;;5066722;28;20029;-78
2022/09/29 06:46:32;;;;;;;1.45;0.30;;;17.30;99.90;;;;;;5074425;28;20025;-81
2022/09/29 06:48:59;;;;;;;3.10;0.47;;;17.20;99.90;;;;;;5074292;28;20051;-79
2022/09/29 06:51:27;;;;;;;2.80;0.30;;;17.20;99.90;;;;;;5075232;28;20029;-79
2022/09/29 06:53:54;;;;;;;1.08;0.38;;;17.10;99.90;;;;;;5068035;28;20379;-81
2022/09/29 06:56:21;;;;;;;2.08;0.50;;;17.00;99.90;;;;;;5054119;28;20029;-80
2022/09/29 06:58:49;;;;;;;3.55;0.30;;;17.10;99.90;;;;;;5062302;28;20061;-80
2022/09/29 07:01:16;;;;;;;0.45;0.25;;;17.10;99.90;;;;;;5058897;28;22737;-80
2022/09/29 07:03:43;;;;;;;0.93;0.43;;;17.00;99.90;;;;;;5060050;28;20555;-81
2022/09/29 07:06:11;;;;;;;0.88;0.20;;;17.00;99.90;;;;;;5062719;28;20124;-80
2022/09/29 07:08:39;;;;;;;0.60;0.25;;;16.90;99.90;;;;;;5061932;28;20037;-80
2022/09/29 07:11:08;;;;;;;2.55;0.40;;;16.90;99.90;;;;;;5087490;28;20028;-80
2022/09/29 07:13:42;;;;;;;3.60;0.43;;;16.90;99.90;;;;;;5088506;28;20028;-80
2022/09/29 07:16:14;;;;;;;1.35;0.40;;;16.90;99.90;;;;;;5068997;28;20063;-79
2022/09/29 07:18:43;;;;;;;2.65;0.40;;;16.90;99.90;;;;;;5085008;28;20086;-80
2022/09/29 07:21:16;;;;;;;0.95;0.20;;;16.90;99.90;;;;;;5080446;28;20025;-78
2022/09/29 07:23:44;;;;;;;1.70;0.40;;;16.90;99.90;;;;;;5061461;28;20145;-80
2022/09/29 07:26:13;;;;;;;1.63;0.43;;;16.90;99.90;;;;;;5056630;28;20021;-78
2022/09/29 07:28:40;;;;;;;3.33;0.85;;;16.90;99.90;;;;;;5071558;28;20033;-79
2022/09/29 07:31:14;;;;;;;4.03;0.57;;;16.90;99.90;;;;;;5058307;28;20029;-77
2022/09/29 07:33:42;;;;;;;1.17;0.57;;;16.80;99.90;;;;;;5078034;28;20064;-78
2022/09/29 07:36:09;;;;;;;2.95;0.65;;;16.90;99.90;;;;;;5053009;28;20475;-79
2022/09/29 07:38:36;;;;;;;5.53;0.50;;;16.80;99.90;;;;;;5078738;28;20044;-78
2022/09/29 07:41:06;;;;;;;7.53;1.15;;;16.80;99.90;;;;;;5080037;28;20020;-78
2022/09/29 07:43:34;;;;;;;4.32;0.60;;;16.70;99.90;;;;;;5071830;28;20123;-77
2022/09/29 07:46:02;;;;;;;6.25;0.75;;;16.70;99.90;;;;;;5066989;28;20060;-77
2022/09/29 07:48:31;;;;;;;4.70;1.02;;;16.60;99.90;;;;;;5078008;28;20494;-76
2022/09/29 07:51:19;;;;;;;5.20;0.88;;;16.60;99.90;;;;;;5041023;28;20102;-78
2022/09/29 07:53:47;;;;;;;4.70;0.68;;;16.60;99.90;;;;;;5060304;28;20048;-78
2022/09/29 07:56:17;;;;;;;4.18;0.65;;;16.60;99.90;;;;;;5059878;28;20564;-77
2022/09/29 07:58:48;;;;;;;2.03;0.52;;;16.60;99.90;;;;;;5063915;28;20121;-78
2022/09/29 08:01:17;;;;;;;3.92;0.75;;;16.60;99.90;;;;;;5066485;28;20154;-79
2022/09/29 08:03:49;;;;;;;0.45;0.10;;;16.60;99.90;;;;;;5073923;28;20060;-79
2022/09/29 08:06:17;;;;;;;1.23;0.20;;;16.60;99.90;;;;;;5071445;28;20029;-78
2022/09/29 08:08:44;;;;;;;0.75;0.05;;;16.50;99.90;;;;;;5069570;28;20488;-80
2022/09/29 08:11:15;;;;;;;0.57;0.20;;;16.50;99.90;;;;;;5087891;28;20096;-79
2022/09/29 08:13:44;;;;;;;0.45;0.30;;;16.40;99.90;;;;;;5066430;28;20036;-79
2022/09/29 08:16:13;;;;;;;0.50;0.20;;;16.30;99.90;;;;;;5066284;28;20021;-82
2022/09/29 08:18:41;;;;;;;0.10;0.08;;;16.20;99.90;;;;;;5075407;28;20044;-77
2022/09/29 08:21:10;;;;;;;1.35;0.10;;;16.10;99.90;;;;;;5078991;28;20025;-77
2022/09/29 08:23:41;;;;;;;2.92;0.10;;;16.00;99.90;;;;;;5033991;28;20036;-77
2022/09/29 08:26:12;;;;;;;0.40;0.03;;;16.00;99.90;;;;;;5064715;28;20020;-79
2022/09/29 08:28:41;;;;;;;0.10;0.10;;;16.00;99.90;;;;;;5072769;28;20051;-76
2022/09/29 08:31:20;;;;;;;0.50;0.10;;;15.90;99.90;;;;;;5052815;28;20029;-76
2022/09/29 08:33:49;;;;;;;3.75;0.35;;;15.90;99.90;;;;;;5068721;28;20143;-76
2022/09/29 08:36:17;;;;;;;1.70;0.30;;;15.80;99.90;;;;;;5076805;28;20123;-79
2022/09/29 08:38:56;;;;;;;1.48;0.10;;;15.90;99.90;;;;;;5065494;28;20041;-77
2022/09/29 08:41:44;;;;;;;2.65;0.10;;;15.90;99.90;;;;;;5061029;28;20099;-80
2022/09/29 08:44:30;;;;;;;2.05;0.43;;;15.90;99.90;;;;;;5072015;28;20028;-78
2022/09/29 08:47:07;;;;;;;0.22;0.10;;;15.90;99.90;;;;;;5070498;28;20052;-77
2022/09/29 08:49:46;;;;;;;0.93;0.17;;;15.90;99.90;;;;;;5073799;28;20048;-76
2022/09/29 08:52:30;;;;;;;2.00;0.30;;;15.90;99.90;;;;;;5070064;28;20483;-76
2022/09/29 08:55:22;;;;;;;3.05;0.30;;;16.00;99.90;;;;;;5078486;28;20055;-77
2022/09/29 08:57:58;;;;;;;3.00;0.57;;;16.00;99.90;;;;;;5070915;28;20550;-79
2022/09/29 09:01:01;;;;;;;2.60;0.25;;;16.00;99.90;;;;;;5057645;28;20032;-79
2022/09/29 09:03:44;;;;;;;1.55;0.40;;;16.00;99.90;;;;;;5067880;28;20059;-83
2022/09/29 09:06:35;;;;;;;1.38;0.45;;;16.00;99.90;;;;;;5069363;28;20037;-79
2022/09/29 09:09:24;;;;;;;0.80;0.20;;;16.00;99.90;;;;;;5061733;28;20104;-79
2022/09/29 09:12:11;;;;;;;2.50;0.63;;;16.00;99.90;;;;;;5051693;28;20483;-80
2022/09/29 09:14:45;;;;;;;2.55;0.30;;;16.00;99.90;;;;;;5066382;28;20039;-79
2022/09/29 09:17:48;;;;;;;0.93;0.40;;;16.00;99.90;;;;;;5064165;28;20028;-83
2022/09/29 09:20:35;;;;;;;2.20;0.20;;;16.00;99.90;;;;;;5079325;28;20983;-79
2022/09/29 09:23:21;;;;;;;0.63;0.10;;;15.90;99.90;;;;;;5054673;28;20029;-79
2022/09/29 09:26:01;;;;;;;1.30;0.30;;;15.90;99.90;;;;;;5079291;28;20028;-78
2022/09/29 09:28:35;;;;;;;1.33;0.20;;;15.90;99.90;;;;;;5070221;28;20033;-76
2022/09/29 09:31:29;;;;;;;0.47;0.20;;;15.90;99.90;;;;;;5071497;28;20016;-78
2022/09/29 09:34:26;;;;;;;0.93;0.10;;;15.90;99.90;;;;;;5053779;28;20063;-79
2022/09/29 09:37:05;;;;;;;0.65;0.13;;;15.90;99.90;;;;;;5070848;28;20399;-79
2022/09/29 09:39:43;;;;;;;3.53;0.35;;;15.90;99.90;;;;;;5077097;28;20036;-79
2022/09/29 09:42:22;;;;;;;0.20;0.20;;;15.90;99.90;;;;;;5076730;28;20479;-78
2022/09/29 09:45:08;;;;;;;0.15;0.10;;;16.00;99.90;;;;;;5069329;28;20479;-78
2022/09/29 09:47:46;;;;;;;0.30;0.10;;;16.00;99.90;;;;;;5068027;28;20056;-78
2022/09/29 09:50:16;;;;;;;3.00;0.20;;;16.00;99.90;;;;;;5050021;28;20098;-79
2022/09/29 09:52:52;;;;;;;1.80;0.73;;;16.00;99.90;;;;;;5069570;28;20035;-76
2022/09/29 09:55:23;;;;;;;1.55;0.10;;;16.00;99.90;;;;;;5065858;28;20108;-82
2022/09/29 09:58:02;;;;;;;0.52;0.10;;;16.00;99.90;;;;;;5058726;28;20036;-75
2022/09/29 10:00:48;;;;;;;2.38;0.30;;;16.00;99.90;;;;;;5083281;28;20042;-79
2022/09/29 10:03:16;;;;;;;3.70;0.40;;;16.00;99.90;;;;;;5056347;28;20383;-79
2022/09/29 10:05:46;;;;;;;0.45;0.10;;;16.00;99.90;;;;;;5055314;28;20039;-79
2022/09/29 10:08:29;;;;;;;2.08;0.32;;;16.00;99.90;;;;;;5057268;28;20060;-77
2022/09/29 10:10:58;;;;;;;1.15;0.10;;;16.00;99.90;;;;;;5074733;28;20486;-87
2022/09/29 10:13:28;;;;;;;1.42;0.35;;;15.90;99.90;;;;;;5070668;28;20035;-78
2022/09/29 10:16:31;;;;;;;0.68;0.20;;;15.90;99.90;;;;;;5059958;28;20025;-79
2022/09/29 10:18:59;;;;;;;0.60;0.10;;;15.90;99.90;;;;;;5081216;28;20116;-79
2022/09/29 10:21:28;;;;;;;1.95;0.50;;;15.90;99.90;;;;;;5072329;28;20024;-79
2022/09/29 10:23:56;;;;;;;2.30;0.82;;;15.80;99.90;;;;;;5063244;28;20167;-79
2022/09/29 10:26:37;;;;;;;1.40;0.22;;;15.80;99.90;;;;;;5073295;28;20020;-78
2022/09/29 10:29:22;;;;;;;2.60;0.40;;;15.80;99.90;;;;;;5066226;28;20037;-79
2022/09/29 10:32:13;;;;;;;1.25;0.28;;;15.80;99.90;;;;;;5061306;28;20044;-81
2022/09/29 10:34:43;;;;;;;1.20;0.10;;;15.70;99.90;;;;;;5069532;28;20037;-77
2022/09/29 10:37:24;;;;;;;0.65;0.28;;;15.70;99.90;;;;;;5066707;28;20075;-77
2022/09/29 10:40:07;;;;;;;1.75;0.38;;;15.70;99.90;;;;;;5069508;28;20044;-76
2022/09/29 10:42:37;;;;;;;3.20;0.38;;;15.70;99.90;;;;;;5075967;28;20025;-79
2022/09/29 10:45:17;;;;;;;1.08;0.85;;;15.60;99.90;;;;;;5078989;28;20036;-82
2022/09/29 10:48:09;;;;;;;2.53;0.47;;;15.60;99.90;;;;;;5064342;28;20021;-84
2022/09/29 10:50:51;;;;;;;7.07;0.70;;;15.60;99.90;;;;;;5059915;28;20178;-85
2022/09/29 10:53:37;;;;;;;0.38;0.35;;;15.60;99.90;;;;;;5072947;28;20436;-79
2022/09/29 10:56:10;;;;;;;0.57;0.13;;;15.50;99.90;;;;;;5081086;28;20073;-80
2022/09/29 10:58:44;;;;;;;0.93;0.30;;;15.50;99.90;;;;;;5073281;28;20119;-79
2022/09/29 11:01:16;;;;;;;2.08;0.40;;;15.40;99.90;;;;;;5085736;28;20486;-80
2022/09/29 11:04:00;;;;;;;3.08;0.47;;;15.40;99.90;;;;;;5071399;28;20036;-80
2022/09/29 11:06:35;;;;;;;3.80;0.65;;;15.30;99.90;;;;;;5067006;28;20028;-79
2022/09/29 11:09:22;;;;;;;3.08;0.30;;;15.30;99.90;;;;;;5070649;28;20036;-80
2022/09/29 11:11:54;;;;;;;1.10;0.40;;;15.30;99.90;;;;;;5044531;28;20033;-79
2022/09/29 11:14:28;;;;;;;0.90;0.20;;;15.20;99.90;;;;;;5062737;28;20032;-79
2022/09/29 11:16:59;;;;;;;3.20;0.40;;;15.30;99.90;;;;;;5071892;28;20056;-79
2022/09/29 11:19:31;;;;;;;3.50;1.05;;;15.30;99.90;;;;;;5073998;28;20465;-78
2022/09/29 11:22:23;;;;;;;1.52;0.50;;;15.20;99.90;;;;;;5079161;28;20115;-80
2022/09/29 11:25:17;;;;;;;1.00;0.40;;;15.30;99.90;;;;;;5065059;28;20032;-79
2022/09/29 11:28:16;;;;;;;1.25;0.20;;;15.20;99.90;;;;;;5080503;28;20028;-79
2022/09/29 11:30:59;;;;;;;2.17;0.38;;;15.20;99.90;;;;;;5081987;28;20019;-79
2022/09/29 11:33:54;;;;;;;2.58;0.50;;;15.10;99.90;;;;;;5078664;28;20052;-79
2022/09/29 11:36:41;;;;;;;2.50;1.60;;;15.20;99.90;;;;;;5061334;28;20383;-82
2022/09/29 11:39:28;;;;;;;;;;;15.10;99.90;;;;;;5061068;28;20036;-86
2022/09/29 11:42:00;;;;;;;2.50;0.82;;;15.10;99.90;;;;;;5068723;28;19912;-95
2022/09/29 11:44:54;;;;;;;4.05;1.10;;;15.00;99.90;;;;;;5064584;28;20025;-81
2022/09/29 11:47:35;;;;;;;4.65;0.50;;;14.90;99.90;;;;;;5082742;28;20077;-87
2022/09/29 11:50:27;;;;;;;1.73;0.45;;;14.90;99.90;;;;;;5069234;28;20036;-89
2022/09/29 11:53:39;;;;;;;5.25;0.73;;;14.80;99.90;;;;;;5063463;28;20530;-81
2022/09/29 11:56:24;;;;;;;3.25;0.50;;;14.70;99.90;;;;;;5046405;28;20047;-84
2022/09/29 11:59:05;;;;;;;12.87;0.87;;;14.60;99.90;;;;;;5072153;28;20032;-82
2022/09/29 12:02:16;;;;;;;2.05;0.28;;;14.60;99.90;;;;;;5060852;28;20030;-83
2022/09/29 12:04:59;;;;;;;2.75;0.60;;;14.50;99.90;;;;;;5073755;28;20089;-80
2022/09/29 12:07:35;;;;;;;1.15;0.38;;;14.50;99.90;;;;;;5073264;28;20036;-80
2022/09/29 12:10:42;;;;;;;3.60;0.40;;;14.40;99.90;;;;;;5064312;28;20036;-81
2022/09/29 12:13:35;;;;;;;8.57;0.75;;;14.50;99.90;;;;;;5064419;28;20104;-80
2022/09/29 12:16:19;;;;;;;4.72;1.55;;;14.50;99.90;;;;;;5053850;28;20029;-80
2022/09/29 12:19:10;;;;;;;5.10;0.63;;;14.50;99.90;;;;;;5068410;28;20052;-81
2022/09/29 12:21:40;;;;;;;3.72;0.73;;;14.60;99.90;;;;;;5070612;28;20025;-80
2022/09/29 12:24:16;;;;;;;3.38;0.35;;;14.60;99.90;;;;;;5061214;28;20079;-77
2022/09/29 12:26:49;;;;;;;3.65;0.47;;;14.70;99.90;;;;;;5060186;28;20021;-80
2022/09/29 12:29:37;;;;;;;2.00;0.88;;;14.70;99.90;;;;;;5063952;28;20037;-79
2022/09/29 12:32:27;;;;;;;2.20;0.30;;;14.80;99.90;;;;;;5074215;28;20138;-79
2022/09/29 12:34:56;;;;;;;3.80;0.40;;;14.90;99.90;;;;;;5078095;28;20032;-78
2022/09/29 12:37:46;;;;;;;5.03;0.60;;;14.90;99.90;;;;;;5079038;28;20156;-78
2022/09/29 12:40:33;;;;;;;6.38;1.40;;;14.90;99.90;;;;;;5078557;28;20082;-76
2022/09/29 12:43:11;;;;;;;2.85;0.32;;;15.00;99.90;;;;;;5053631;28;20021;-76
2022/09/29 12:45:47;;;;;;;6.15;0.45;;;15.00;99.90;;;;;;5064391;28;20032;-76
2022/09/29 12:48:44;;;;;;;3.72;0.50;;;15.00;99.90;;;;;;5069963;28;20096;-75
2022/09/29 12:51:27;;;;;;;3.70;0.55;;;15.10;99.90;;;;;;5070323;28;20123;-76
2022/09/29 12:54:19;;;;;;;4.43;0.70;;;15.10;99.90;;;;;;5058210;28;20163;-77
2022/09/29 12:56:59;;;;;;;5.32;0.47;;;15.10;99.90;;;;;;5063390;28;20036;-77
2022/09/29 12:59:32;;;;;;;3.22;0.50;;;15.10;99.90;;;;;;5069261;28;20035;-78
2022/09/29 13:02:05;;;;;;;3.60;0.82;;;15.10;99.90;;;;;;5070224;28;20025;-76
2022/09/29 13:04:41;;;;;;;2.75;0.95;;;15.10;99.90;;;;;;5068392;28;20054;-76
2022/09/29 13:07:38;;;;;;;2.58;0.75;;;15.00;99.90;;;;;;5060280;28;20023;-77
2022/09/29 13:10:11;;;;;;;;;;;15.00;99.90;;;;;;5050078;28;20033;-77
2022/09/29 13:12:47;;;;;;;7.75;0.68;;;15.00;99.90;;;;;;5070005;28;19955;-76
2022/09/29 13:15:27;;;;;;;4.97;0.40;;;15.00;99.90;;;;;;5083799;28;20028;-76
2022/09/29 13:18:16;;;;;;;5.72;0.38;;;15.00;99.90;;;;;;5074581;28;20033;-77
2022/09/29 13:21:00;;;;;;;1.42;0.63;;;15.00;99.90;;;;;;5091173;28;20086;-77
2022/09/29 13:23:39;;;;;;;3.53;0.57;;;15.00;99.90;;;;;;5071961;28;20055;-78
2022/09/29 13:26:25;;;;;;;4.13;0.75;;;14.90;99.90;;;;;;5069649;28;20491;-79
2022/09/29 13:29:01;;;;;;;1.65;0.50;;;14.90;99.90;;;;;;5071040;28;20131;-75
2022/09/29 13:31:31;;;;;;;5.05;0.60;;;14.80;99.90;;;;;;5066000;28;20058;-78